Flight Track Log - Related Links

Times and Time Zones

All times are in EDT time to prevent confusion due to time zone crossing. See the EJA831 flight status page for this flight to view local times or setup timezone preferences in your user account.

Time Position Orientation Groundspeed Altitude Reporting Facility
EDT Latitude Longitude Course Direction KTS MPH feet Rate Location/Type
Sat 11:15:42 AM 35.9972 -79.9733 202° Southwest 187 215 7,400  Level Atlanta Center
Sat 11:16:42 AM 35.9378 -80.0072 205° Southwest 211 243 10,100 3,000 Climbing Atlanta Center
Sat 11:17:42 AM 35.8619 -80.0467 203° Southwest 258 297 13,400 2,900 Climbing Atlanta Center
Sat 11:18:42 AM 35.7925 -80.0911 207° Southwest 276 318 15,900 2,350 Climbing Atlanta Center
Sat 11:19:42 AM 35.7383 -80.1628 227° Southwest 287 330 18,100 1,900 Climbing Atlanta Center
Sat 11:20:00 AM 35.5661 -80.2004 202° Southwest  Level FlightAware Approximate
Sat 11:20:42 AM 35.7017 -80.2567 244° Southwest 300 345 19,700  Level Atlanta Center
Sat 11:21:42 AM 35.6631 -80.3606 245° Southwest 321 369 22,400 2,200 Climbing Atlanta Center
Sat 11:22:42 AM 35.6303 -80.4464 245° Southwest 321 369 24,100 1,850 Climbing Atlanta Center
Sat 11:23:42 AM 35.5892 -80.5428 242° Southwest 321 369 26,100 1,800 Climbing Atlanta Center
Sat 11:24:42 AM 35.5439 -80.6339 239° Southwest 327 376 27,700 1,500 Climbing Atlanta Center
Sat 11:25:42 AM 35.4964 -80.7303 239° Southwest 327 376 29,100 1,100 Climbing Atlanta Center
Sat 11:26:42 AM 35.4508 -80.8289 240° Southwest 333 383 29,900 900 Climbing Atlanta Center
Sat 11:27:42 AM 35.3994 -80.9331 239° Southwest 328 377 30,900 850 Climbing Atlanta Center
Sat 11:28:42 AM 35.3517 -81.0314 239° Southwest 328 377 31,600 700 Climbing Atlanta Center
Sat 11:29:42 AM 35.3042 -81.1300 239° Southwest 333 383 32,300 700 Climbing Atlanta Center
Sat 11:30:42 AM 35.2564 -81.2283 239° Southwest 333 383 33,000 700 Climbing Atlanta Center
Sat 11:31:42 AM 35.2083 -81.3264 239° Southwest 338 389 33,700 650 Climbing Atlanta Center
Sat 11:32:42 AM 35.1664 -81.4142 240° Southwest 338 389 34,300 800 Climbing Atlanta Center
Sat 11:33:42 AM 35.1186 -81.5122 239° Southwest 343 395 35,300 1,250 Climbing Atlanta Center
Sat 11:34:42 AM 35.0706 -81.6128 240° Southwest 343 395 36,800 1,450 Climbing Atlanta Center
Sat 11:35:42 AM 35.0242 -81.7078 239° Southwest 338 389 38,200 1,200 Climbing Atlanta Center
Sat 11:36:42 AM 34.9761 -81.8056 239° Southwest 343 395 39,200 750 Climbing Atlanta Center
Sat 11:37:42 AM 34.9278 -81.9031 239° Southwest 343 395 39,700 400 Climbing Atlanta Center
Sat 11:38:42 AM 34.8733 -82.0133 239° Southwest 343 395 40,000 150 Climbing Atlanta Center
Sat 11:39:42 AM 34.8206 -82.1208 239° Southwest 353 406 40,000  Level Atlanta Center
Sat 11:40:42 AM 34.7661 -82.2308 239° Southwest 370 426 40,000  Level Atlanta Center
Sat 11:41:42 AM 34.7092 -82.3433 238° Southwest 390 449 40,000  Level Atlanta Center
Sat 11:42:42 AM 34.6544 -82.4556 239° Southwest 390 449 40,000  Level Atlanta Center
Sat 11:43:42 AM 34.5972 -82.5675 238° Southwest 390 449 40,000  Level Atlanta Center
Sat 11:44:42 AM 34.5339 -82.6772 235° Southwest 398 458 40,000  Level Atlanta Center
Sat 11:45:42 AM 34.4850 -82.7814 240° Southwest 398 458 40,000  Level Atlanta Center
Sat 11:46:42 AM 34.4297 -82.8903 238° Southwest 393 452 40,000  Level Atlanta Center
Sat 11:47:42 AM 34.3722 -83.0019 238° Southwest 393 452 40,000  Level Atlanta Center
Sat 11:48:42 AM 34.3167 -83.1108 238° Southwest 393 452 40,000  Level Atlanta Center
Sat 11:49:42 AM 34.2592 -83.2194 237° Southwest 388 447 40,000  Level Atlanta Center
Sat 11:50:42 AM 34.2033 -83.3331 239° Southwest 388 447 40,000  Level Atlanta Center
Sat 11:51:42 AM 34.1433 -83.4489 238° Southwest 388 447 40,000  Level Atlanta Center
Sat 11:52:42 AM 34.0856 -83.5597 238° Southwest 388 447 40,000  Level Atlanta Center
Sat 11:53:42 AM 34.0275 -83.6703 238° Southwest 388 447 40,000  Level Atlanta Center
Sat 11:54:42 AM 33.9819 -83.7833 244° Southwest 388 447 40,000  Level Atlanta Center
Sat 11:55:42 AM 33.9694 -83.9086 263° West 371 427 40,000  Level Atlanta Center
Sat 11:56:42 AM 33.9592 -84.0339 264° West 376 433 40,000  Level Atlanta Center
Sat 11:57:42 AM 33.9486 -84.1589 264° West 381 438 40,000  Level Atlanta Center
Sat 11:58:42 AM 33.9358 -84.2792 263° West 390 449 40,000  Level Atlanta Center
Sat 11:59:42 AM 33.9211 -84.4067 262° West 390 449 40,000  Level Atlanta Center
Sat 12:00:42 PM 33.9122 -84.5369 265° West 390 449 40,000  Level Atlanta Center
Sat 12:01:42 PM 33.9011 -84.6644 264° West 390 449 40,000  Level Atlanta Center
Sat 12:02:42 PM 33.8881 -84.7919 263° West 390 449 40,000  Level Atlanta Center
Sat 12:03:42 PM 33.8767 -84.9344 265° West 390 449 40,000  Level Atlanta Center
Sat 12:04:42 PM 33.8653 -85.0619 264° West 390 449 40,000  Level Atlanta Center
Sat 12:05:42 PM 33.8536 -85.1869 264° West 385 443 40,000  Level Atlanta Center
Sat 12:06:42 PM 33.8419 -85.3144 264° West 385 443 40,000  Level Atlanta Center
Sat 12:07:42 PM 33.8281 -85.4392 262° West 385 443 40,000  Level Atlanta Center
Sat 12:08:42 PM 33.8183 -85.5514 264° West 385 443 40,000  Level Atlanta Center
Sat 12:09:42 PM 33.8042 -85.6789 262° West 390 449 40,000  Level Atlanta Center
Sat 12:10:42 PM 33.7878 -85.8083 261° West 377 434 40,000  Level Atlanta Center
Sat 12:11:42 PM 33.7733 -85.9331 262° West 372 428 40,000  Level Atlanta Center
Sat 12:12:42 PM 33.7589 -86.0578 262° West 372 428 40,000  Level Atlanta Center
Sat 12:13:42 PM 33.7483 -86.1847 264° West 377 434 40,000  Level Atlanta Center
Sat 12:14:42 PM 33.7358 -86.3094 263° West 382 440 40,000 -50 Level Atlanta Center
Sat 12:15:42 PM 33.7189 -86.4314 261° West 382 440 39,900  Descending Atlanta Center
Sat 12:16:42 PM 33.7058 -86.5558 263° West 389 448 40,000 50 Climbing Atlanta Center
Sat 12:17:42 PM 33.6908 -86.6803 262° West 389 448 40,000  Level Atlanta Center
Sat 12:18:42 PM 33.6797 -86.8047 264° West 389 448 40,000  Level Atlanta Center
Sat 12:20:32 PM 33.6525 -87.0383 262° West 402 463 40,000  Level Memphis Center
Sat 12:21:32 PM 33.6369 -87.1636 262° West 396 456 40,000  Level Memphis Center
Sat 12:22:32 PM 33.6233 -87.2914 263° West 391 450 40,000  Level Memphis Center
Sat 12:23:32 PM 33.6119 -87.4164 264° West 391 450 40,000  Level Memphis Center
Sat 12:24:32 PM 33.5958 -87.5392 261° West 391 450 40,000  Level Memphis Center
Sat 12:25:32 PM 33.5819 -87.6667 263° West 391 450 40,000  Level Memphis Center
Sat 12:26:32 PM 33.5658 -87.7919 261° West 391 450 40,000  Level Memphis Center
Sat 12:27:32 PM 33.5519 -87.9194 263° West 391 450 40,000  Level Memphis Center
Sat 12:28:32 PM 33.5394 -88.0419 263° West 391 450 40,000  Level Memphis Center
Sat 12:29:32 PM 33.5231 -88.1694 261° West 391 450 40,000  Level Memphis Center
Sat 12:30:32 PM 33.5144 -88.2792 265° West 391 450 40,000  Level Memphis Center
Sat 12:31:32 PM 33.5019 -88.4042 263° West 391 450 40,000  Level Memphis Center
Sat 12:32:32 PM 33.4872 -88.5289 262° West 391 450 40,000  Level Memphis Center
Sat 12:33:32 PM 33.4869 -88.6536 270° West 391 450 40,000  Level Memphis Center
Sat 12:34:32 PM 33.4842 -88.7756 268° West 380 437 40,000  Level Memphis Center
Sat 12:35:32 PM 33.4836 -88.9003 270° West 380 437 40,000  Level Memphis Center
Sat 12:36:32 PM 33.4536 -89.0178 253° West 380 437 40,000  Level Memphis Center
Sat 12:37:32 PM 33.4175 -89.1403 251° West 380 437 40,000  Level Memphis Center
Sat 12:38:32 PM 33.3808 -89.2575 249° West 385 443 40,000  Level Memphis Center
Sat 12:39:32 PM 33.3464 -89.3775 251° West 385 443 40,000  Level Memphis Center
Sat 12:40:32 PM 33.3119 -89.4972 251° West 390 449 40,000  Level Memphis Center
Sat 12:41:32 PM 33.2708 -89.6267 249° West 390 449 40,000  Level Memphis Center
Sat 12:42:32 PM 33.2383 -89.7461 252° West 390 449 40,000  Level Memphis Center
Sat 12:43:32 PM 33.2011 -89.8656 250° West 390 449 40,000  Level Memphis Center
Sat 12:44:32 PM 33.1639 -89.9900 250° West 390 449 40,000  Level Memphis Center
Sat 12:45:32 PM 33.1267 -90.1117 250° West 390 449 40,000  Level Memphis Center
Sat 12:46:32 PM 33.0894 -90.2308 250° West 390 449 40,000  Level Memphis Center
Sat 12:47:32 PM 33.0497 -90.3497 248° West 390 449 40,000  Level Memphis Center
Sat 12:48:32 PM 33.0164 -90.4639 251° West 395 455 40,000  Level Memphis Center
Sat 12:49:32 PM 32.9786 -90.5825 249° West 395 455 40,000  Level Memphis Center
Sat 12:50:32 PM 32.9408 -90.7039 250° West 390 449 40,000  Level Memphis Center
Sat 12:51:32 PM 32.9028 -90.8250 250° West 395 455 40,000  Level Memphis Center
Sat 12:52:32 PM 32.8625 -90.9508 249° West 395 455 40,000  Level Memphis Center
Sat 12:53:32 PM 32.8244 -91.0692 249° West 395 455 40,000  Level Memphis Center
Sat 12:54:32 PM 32.7881 -91.1925 251° West 395 455 40,000  Level Memphis Center
Sat 12:56:51 PM 32.6958 -91.4869 250° West 399 459 40,000  Level Fort Worth Center
Sat 12:57:51 PM 32.6556 -91.6081 248° West 399 459 40,000  Level Fort Worth Center
Sat 12:58:51 PM 32.6278 -91.7331 255° West 399 459 40,000  Level Fort Worth Center
Sat 12:59:51 PM 32.6189 -91.8569 265° West 386 444 40,000  Level Fort Worth Center
Sat 01:00:51 PM 32.6139 -91.9856 267° West 386 444 40,000  Level Fort Worth Center
Sat 01:01:51 PM 32.6067 -92.1092 266° West 386 444 40,000  Level Fort Worth Center
Sat 01:02:51 PM 32.5975 -92.2356 265° West 386 444 40,000  Level Fort Worth Center
Sat 01:03:51 PM 32.5900 -92.3639 266° West 386 444 40,000  Level Fort Worth Center
Sat 01:04:51 PM 32.5822 -92.4803 265° West 386 444 40,000  Level Fort Worth Center
Sat 01:05:51 PM 32.5747 -92.6089 266° West 381 438 40,000  Level Fort Worth Center
Sat 01:06:51 PM 32.5711 -92.7322 268° West 381 438 40,000  Level Fort Worth Center
Sat 01:07:51 PM 32.5589 -92.8586 263° West 387 445 40,000  Level Fort Worth Center
Sat 01:08:51 PM 32.5508 -92.9847 266° West 387 445 40,000  Level Fort Worth Center
Sat 01:09:51 PM 32.5406 -93.1083 264° West 387 445 40,000  Level Fort Worth Center
Sat 01:10:51 PM 32.5303 -93.2344 265° West 387 445 40,000  Level Fort Worth Center
Sat 01:11:51 PM 32.5219 -93.3606 266° West 387 445 40,000  Level Fort Worth Center
Sat 01:12:51 PM 32.5133 -93.4867 265° West 387 445 40,000  Level Fort Worth Center
Sat 01:13:51 PM 32.5025 -93.6103 264° West 387 445 40,000  Level Fort Worth Center
Sat 01:14:51 PM 32.4936 -93.7361 265° West 387 445 40,000  Level Fort Worth Center
Sat 01:15:51 PM 32.4847 -93.8622 265° West 387 445 40,000  Level Fort Worth Center
Sat 01:16:51 PM 32.4736 -93.9856 264° West 387 445 40,000  Level Fort Worth Center
Sat 01:17:51 PM 32.4644 -94.1117 265° West 387 445 40,000  Level Fort Worth Center
Sat 01:18:51 PM 32.4550 -94.2350 265° West 387 445 40,000  Level Fort Worth Center
Sat 01:19:51 PM 32.4478 -94.3558 266° West 387 445 40,000  Level Fort Worth Center
Sat 01:20:51 PM 32.4361 -94.4794 264° West 387 445 40,000  Level Fort Worth Center
Sat 01:21:51 PM 32.4264 -94.6028 265° West 387 445 40,000 -450 Level Fort Worth Center
Sat 01:22:51 PM 32.4164 -94.7261 265° West 387 445 39,100 -1,350 Descending Fort Worth Center
Sat 01:23:51 PM 32.4169 -94.8442 270° West 382 440 37,300 -2,050 Descending Fort Worth Center
Sat 01:24:51 PM 32.4275 -94.9669 276° West 376 433 35,000 -2,300 Descending Fort Worth Center
Sat 01:25:51 PM 32.4447 -95.0919 279° West 382 440 32,700 -2,350 Descending Fort Worth Center
Sat 01:26:51 PM 32.4553 -95.2172 276° West 388 447 30,300 -2,450 Descending Fort Worth Center
Sat 01:27:51 PM 32.4678 -95.3475 277° West 393 452 27,800 -2,500 Descending Fort Worth Center
Sat 01:28:51 PM 32.4844 -95.4800 279° West 399 459 25,300 -2,500 Descending Fort Worth Center
Sat 01:29:51 PM 32.4969 -95.6078 277° West 404 465 22,800 -2,300 Descending Fort Worth Center
Sat 01:30:51 PM 32.5069 -95.7211 276° West 398 458 20,700 -2,300 Descending Fort Worth Center
Sat 01:31:51 PM 32.5189 -95.8564 276° West 385 443 18,200 -2,300 Descending Fort Worth Center
Sat 01:32:51 PM 32.5286 -95.9622 276° West 374 430 16,100 -2,250 Descending Fort Worth Center
Sat 01:33:51 PM 32.5406 -96.0925 276° West 365 420 13,700 -2,200 Descending Fort Worth Center
Sat 01:34:51 PM 32.5478 -96.1886 275° West 358 412 11,700 -2,000 Descending Fort Worth Center
Sat 01:35:51 PM 32.5592 -96.2992 277° West 317 365 9,700 -1,750 Descending Fort Worth Center
Sat 01:36:51 PM 32.5911 -96.3706 298° West 285 328 8,200 -2,200 Descending Fort Worth Center
Sat 01:37:51 PM 32.6378 -96.4514 304° West 270 311 5,300 -1,900 Descending Fort Worth Center
Sat 01:38:51 PM 32.6467 -96.5300 278° West 263 303 4,400 -650 Descending Fort Worth Center
Sat 01:39:51 PM 32.6533 -96.6139 275° West 251 289 4,000 -533 Descending Fort Worth Center
Sat 01:40:21 PM 32.6667 -96.6500 294° West 225 259 3,600 -667 Descending Dallas / Fort Worth TRACON
Sat 01:41:21 PM 32.7000 -96.7000 308° West 185 213 3,000 -650 Descending Dallas / Fort Worth TRACON
Sat 01:42:21 PM 32.7500 -96.7333 331° Northwest 190 219 2,300 -550 Descending Dallas / Fort Worth TRACON
Sat 01:43:21 PM 32.7833 -96.7833 308° West 190 219 1,900 -595 Descending Dallas / Fort Worth TRACON
Sat 01:44:22 PM 32.8167 -96.8167 320° Northwest 129 148 1,100 -787 Descending Dallas / Fort Worth TRACON
Sat 01:49:00 PM 32.8333 -96.8500 301° West  Level FlightAware Approximate
Sat 01:56:00 PM 32.8471 -96.8518 301° West  Level Estimated

Login

Don't have an account? Register now (free) for customized features, flight alerts, and more!